SVR652 UNBB-UUDD
Flight info
| Callsign | SVR652 |
|---|---|
| Flight time | N/A |
| Altitude | 34000 |
| Route | K0845F340 GIRUR A489 IDERI P983 ABESA R234 OKETI L158 APTAR T787 URAGO |
| Aircraft | A321/M-SDE3FGHIRWY/LB1 |
Departure
| Time | 2026-04-14 09:47 |
|---|---|
| Airport | Barnaul Gherman Titov International Airport (UNBB) |
Arrival
| Time | N/A |
|---|---|
| Airport | Domodedovo International Airport (UUDD) |
| Time | Latitude | Longitude | Altitude | Speed | Heading |
|---|---|---|---|---|---|
| 2026-04-14 08:42 | 53.36292 | 83.54849 | 839 ft | 0 kts | 68° |
| 2026-04-14 08:50 | 53.36292 | 83.54848 | 839 ft | 0 kts | 68° |
| 2026-04-14 09:38 | 53.36293 | 83.54850 | 839 ft | 1 kts | 68° |
| 2026-04-14 09:39 | 53.36295 | 83.54859 | 839 ft | 2 kts | 68° |
| 2026-04-14 09:39 | 53.36304 | 83.54883 | 830 ft | 3 kts | 51° |
| 2026-04-14 09:39 | 53.36325 | 83.54897 | 831 ft | 4 kts | 9° |
| 2026-04-14 09:39 | 53.36354 | 83.54903 | 835 ft | 5 kts | 18° |
| 2026-04-14 09:40 | 53.36378 | 83.54937 | 841 ft | 4 kts | 53° |
| 2026-04-14 09:40 | 53.36390 | 83.54982 | 839 ft | 4 kts | 69° |
| 2026-04-14 09:40 | 53.36404 | 83.55034 | 839 ft | 6 kts | 66° |
| 2026-04-14 09:40 | 53.36423 | 83.55109 | 838 ft | 8 kts | 67° |
| 2026-04-14 09:41 | 53.36448 | 83.55210 | 837 ft | 10 kts | 67° |
| 2026-04-14 09:41 | 53.36476 | 83.55322 | 839 ft | 11 kts | 67° |
| 2026-04-14 09:41 | 53.36503 | 83.55431 | 836 ft | 7 kts | 67° |
| 2026-04-14 09:41 | 53.36514 | 83.55472 | 835 ft | 0 kts | 67° |
| 2026-04-14 09:42 | 53.36518 | 83.55491 | 833 ft | 3 kts | 67° |
| 2026-04-14 09:42 | 53.36528 | 83.55529 | 839 ft | 4 kts | 67° |
| 2026-04-14 09:43 | 53.36539 | 83.55575 | 832 ft | 4 kts | 67° |
| 2026-04-14 09:43 | 53.36551 | 83.55621 | 836 ft | 5 kts | 67° |
| 2026-04-14 09:43 | 53.36564 | 83.55675 | 837 ft | 5 kts | 68° |
| 2026-04-14 09:43 | 53.36581 | 83.55744 | 831 ft | 8 kts | 68° |
| 2026-04-14 09:44 | 53.36606 | 83.55842 | 831 ft | 10 kts | 66° |
| 2026-04-14 09:44 | 53.36635 | 83.55957 | 836 ft | 10 kts | 64° |
| 2026-04-14 09:44 | 53.36688 | 83.56007 | 839 ft | 8 kts | 2° |
| 2026-04-14 09:44 | 53.36736 | 83.55982 | 838 ft | 7 kts | 337° |
| 2026-04-14 09:45 | 53.36785 | 83.55949 | 834 ft | 7 kts | 339° |
| 2026-04-14 09:45 | 53.36803 | 83.55928 | 835 ft | 1 kts | 281° |
| 2026-04-14 09:45 | 53.36801 | 83.55909 | 840 ft | 2 kts | 258° |
| 2026-04-14 09:45 | 53.36797 | 83.55882 | 839 ft | 2 kts | 251° |
| 2026-04-14 09:46 | 53.36793 | 83.55865 | 836 ft | 0 kts | 248° |
| 2026-04-14 09:46 | 53.36786 | 83.55840 | 839 ft | 10 kts | 248° |
| 2026-04-14 09:46 | 53.36681 | 83.55417 | 839 ft | 76 kts | 247° |
| 2026-04-14 09:47 | 53.36386 | 83.54240 | 829 ft | 140 kts | 247° |
| 2026-04-14 09:47 | 53.35949 | 83.52473 | 1023 ft | 175 kts | 247° |
| 2026-04-14 09:47 | 53.35526 | 83.50632 | 2056 ft | 168 kts | 258° |
| 2026-04-14 09:47 | 53.35602 | 83.48713 | 2858 ft | 166 kts | 283° |
| 2026-04-14 09:48 | 53.35915 | 83.46772 | 3161 ft | 182 kts | 287° |
| 2026-04-14 09:48 | 53.36320 | 83.44636 | 3406 ft | 203 kts | 287° |
| 2026-04-14 09:48 | 53.36775 | 83.42271 | 3598 ft | 225 kts | 287° |
| 2026-04-14 09:48 | 53.37273 | 83.39637 | 3841 ft | 246 kts | 287° |
| 2026-04-14 09:49 | 53.37772 | 83.36860 | 4500 ft | 252 kts | 285° |
| 2026-04-14 09:49 | 53.38259 | 83.34047 | 5361 ft | 250 kts | 285° |
| 2026-04-14 09:49 | 53.38749 | 83.31254 | 6125 ft | 252 kts | 286° |
| 2026-04-14 09:49 | 53.39230 | 83.28428 | 6884 ft | 253 kts | 286° |
| 2026-04-14 09:50 | 53.39704 | 83.25561 | 7530 ft | 257 kts | 285° |
| 2026-04-14 09:50 | 53.40166 | 83.22669 | 8243 ft | 258 kts | 286° |
| 2026-04-14 09:50 | 53.40630 | 83.19751 | 8921 ft | 260 kts | 286° |
| 2026-04-14 09:50 | 53.41087 | 83.16809 | 9608 ft | 262 kts | 286° |
| 2026-04-14 09:51 | 53.41546 | 83.13834 | 10252 ft | 265 kts | 287° |
| 2026-04-14 09:51 | 53.42021 | 83.10812 | 10678 ft | 276 kts | 287° |
| 2026-04-14 09:51 | 53.42537 | 83.07597 | 10815 ft | 295 kts | 287° |
| 2026-04-14 09:51 | 53.43093 | 83.04175 | 10948 ft | 313 kts | 287° |
| 2026-04-14 09:52 | 53.43680 | 83.00555 | 11082 ft | 330 kts | 287° |
| 2026-04-14 09:52 | 53.44285 | 82.96786 | 11445 ft | 338 kts | 287° |
| 2026-04-14 09:52 | 53.44895 | 82.92962 | 12005 ft | 340 kts | 287° |
| 2026-04-14 09:52 | 53.45506 | 82.89118 | 12594 ft | 342 kts | 287° |
| 2026-04-14 09:53 | 53.46118 | 82.85258 | 13180 ft | 343 kts | 287° |
| 2026-04-14 09:53 | 53.46730 | 82.81384 | 13764 ft | 344 kts | 287° |
| 2026-04-14 09:53 | 53.47342 | 82.77493 | 14320 ft | 345 kts | 287° |
| 2026-04-14 09:53 | 53.47955 | 82.73584 | 14827 ft | 347 kts | 287° |
| 2026-04-14 09:54 | 53.48572 | 82.69665 | 15329 ft | 349 kts | 288° |
| 2026-04-14 09:54 | 53.49194 | 82.65720 | 15834 ft | 350 kts | 287° |
| 2026-04-14 09:54 | 53.49817 | 82.61755 | 16329 ft | 352 kts | 287° |
| 2026-04-14 09:54 | 53.50442 | 82.57769 | 16798 ft | 354 kts | 287° |
| 2026-04-14 09:55 | 53.51066 | 82.53766 | 17268 ft | 355 kts | 287° |
| 2026-04-14 09:55 | 53.51692 | 82.49739 | 17745 ft | 357 kts | 287° |
| 2026-04-14 09:55 | 53.52319 | 82.45695 | 18203 ft | 359 kts | 287° |
| 2026-04-14 09:55 | 53.52949 | 82.41623 | 18642 ft | 361 kts | 287° |
| 2026-04-14 09:56 | 53.53578 | 82.37528 | 19029 ft | 363 kts | 287° |
| 2026-04-14 09:56 | 53.54207 | 82.33409 | 19418 ft | 364 kts | 287° |
| 2026-04-14 09:56 | 53.54836 | 82.29273 | 19811 ft | 366 kts | 287° |
| 2026-04-14 09:56 | 53.55469 | 82.25116 | 20202 ft | 368 kts | 288° |
| 2026-04-14 09:57 | 53.56327 | 82.21075 | 20587 ft | 367 kts | 297° |
| 2026-04-14 09:57 | 53.57534 | 82.17294 | 20974 ft | 368 kts | 300° |
| 2026-04-14 09:57 | 53.58778 | 82.13519 | 21361 ft | 369 kts | 300° |
| 2026-04-14 09:57 | 53.60021 | 82.09725 | 21746 ft | 371 kts | 300° |
| 2026-04-14 09:58 | 53.61269 | 82.05903 | 22131 ft | 373 kts | 300° |
| 2026-04-14 09:58 | 53.62533 | 82.02016 | 22511 ft | 375 kts | 300° |
| 2026-04-14 09:58 | 53.63785 | 81.98154 | 22878 ft | 377 kts | 300° |
| 2026-04-14 09:58 | 53.65042 | 81.94267 | 23250 ft | 378 kts | 300° |
| 2026-04-14 09:59 | 53.66305 | 81.90357 | 23605 ft | 380 kts | 300° |
| 2026-04-14 09:59 | 53.67572 | 81.86434 | 23948 ft | 382 kts | 300° |
| 2026-04-14 09:59 | 53.68843 | 81.82491 | 24247 ft | 384 kts | 300° |
| 2026-04-14 09:59 | 53.70121 | 81.78526 | 24545 ft | 385 kts | 300° |
| 2026-04-14 10:00 | 53.71403 | 81.74545 | 24842 ft | 387 kts | 300° |
| 2026-04-14 10:00 | 53.72687 | 81.70544 | 25138 ft | 388 kts | 300° |
| 2026-04-14 10:00 | 53.73974 | 81.66525 | 25441 ft | 389 kts | 300° |
| 2026-04-14 10:00 | 53.75262 | 81.62493 | 25731 ft | 391 kts | 300° |
| 2026-04-14 10:01 | 53.76554 | 81.58439 | 26019 ft | 392 kts | 300° |
| 2026-04-14 10:01 | 53.77848 | 81.54373 | 26315 ft | 394 kts | 299° |
| 2026-04-14 10:01 | 53.79149 | 81.50288 | 26590 ft | 395 kts | 300° |
| 2026-04-14 10:01 | 53.80455 | 81.46179 | 26862 ft | 397 kts | 299° |
| 2026-04-14 10:02 | 53.81757 | 81.42067 | 27121 ft | 398 kts | 299° |
| 2026-04-14 10:02 | 53.83062 | 81.37933 | 27369 ft | 399 kts | 299° |
| 2026-04-14 10:02 | 53.84372 | 81.33773 | 27613 ft | 400 kts | 299° |
| 2026-04-14 10:02 | 53.85683 | 81.29613 | 27876 ft | 400 kts | 299° |
| 2026-04-14 10:03 | 53.86993 | 81.25460 | 28221 ft | 399 kts | 299° |
| 2026-04-14 10:03 | 53.88296 | 81.21321 | 28569 ft | 397 kts | 299° |
| 2026-04-14 10:03 | 53.89592 | 81.17192 | 28897 ft | 396 kts | 299° |
| 2026-04-14 10:03 | 53.90880 | 81.13066 | 29224 ft | 395 kts | 299° |
| 2026-04-14 10:04 | 53.92158 | 81.08949 | 29549 ft | 394 kts | 299° |
| 2026-04-14 10:04 | 53.93432 | 81.04846 | 29877 ft | 393 kts | 299° |
| 2026-04-14 10:04 | 53.94703 | 81.00755 | 30203 ft | 391 kts | 299° |
| 2026-04-14 10:04 | 53.95970 | 80.96672 | 30502 ft | 390 kts | 299° |
| 2026-04-14 10:05 | 53.97235 | 80.92596 | 30763 ft | 390 kts | 299° |
| 2026-04-14 10:05 | 53.98495 | 80.88522 | 30996 ft | 389 kts | 298° |
| 2026-04-14 10:05 | 53.99749 | 80.84450 | 31230 ft | 389 kts | 298° |
| 2026-04-14 10:05 | 54.01004 | 80.80372 | 31460 ft | 389 kts | 299° |
| 2026-04-14 10:06 | 54.02257 | 80.76299 | 31681 ft | 389 kts | 299° |
| 2026-04-14 10:06 | 54.03510 | 80.72226 | 31904 ft | 388 kts | 299° |
| 2026-04-14 10:06 | 54.04760 | 80.68156 | 32123 ft | 388 kts | 299° |
| 2026-04-14 10:06 | 54.06011 | 80.64085 | 32331 ft | 388 kts | 299° |
| 2026-04-14 10:07 | 54.07260 | 80.60016 | 32561 ft | 388 kts | 299° |
| 2026-04-14 10:07 | 54.08507 | 80.55943 | 32763 ft | 388 kts | 299° |
| 2026-04-14 10:07 | 54.09753 | 80.51869 | 32965 ft | 388 kts | 299° |
| 2026-04-14 10:07 | 54.10995 | 80.47794 | 33166 ft | 387 kts | 299° |
| 2026-04-14 10:08 | 54.12236 | 80.43721 | 33360 ft | 387 kts | 299° |
| 2026-04-14 10:08 | 54.13479 | 80.39646 | 33559 ft | 387 kts | 299° |
| 2026-04-14 10:08 | 54.14715 | 80.35571 | 33747 ft | 387 kts | 299° |
| 2026-04-14 10:08 | 54.15948 | 80.31497 | 33936 ft | 387 kts | 299° |
| 2026-04-14 10:09 | 54.17180 | 80.27413 | 34121 ft | 387 kts | 298° |
| 2026-04-14 10:09 | 54.18409 | 80.23326 | 34281 ft | 387 kts | 298° |
| 2026-04-14 10:09 | 54.19641 | 80.19223 | 34311 ft | 389 kts | 298° |
| 2026-04-14 10:10 | 54.22113 | 80.10999 | 34307 ft | 389 kts | 298° |
| 2026-04-14 10:10 | 54.24585 | 80.02749 | 34302 ft | 390 kts | 298° |
| 2026-04-14 10:11 | 54.27044 | 79.94488 | 34306 ft | 390 kts | 298° |
| 2026-04-14 10:11 | 54.29500 | 79.86217 | 34308 ft | 390 kts | 298° |
| 2026-04-14 10:12 | 54.31957 | 79.77932 | 34307 ft | 390 kts | 298° |
| 2026-04-14 10:12 | 54.34408 | 79.69631 | 34308 ft | 391 kts | 298° |
| 2026-04-14 10:13 | 54.36857 | 79.61307 | 34308 ft | 391 kts | 298° |
| 2026-04-14 10:13 | 54.39296 | 79.52961 | 34311 ft | 391 kts | 298° |
| 2026-04-14 10:14 | 54.41734 | 79.44612 | 34313 ft | 391 kts | 298° |
| 2026-04-14 10:14 | 54.44175 | 79.36249 | 34308 ft | 391 kts | 298° |
| 2026-04-14 10:15 | 54.46606 | 79.27879 | 34309 ft | 392 kts | 298° |
| 2026-04-14 10:15 | 54.48636 | 79.20855 | 34307 ft | 392 kts | 298° |
| 2026-04-14 10:16 | 54.51055 | 79.12454 | 34309 ft | 392 kts | 298° |
| 2026-04-14 10:16 | 54.53464 | 79.04037 | 34306 ft | 392 kts | 298° |
| 2026-04-14 10:17 | 54.55877 | 78.95616 | 34304 ft | 392 kts | 298° |
| 2026-04-14 10:17 | 54.58283 | 78.87178 | 34306 ft | 392 kts | 298° |
| 2026-04-14 10:18 | 54.61872 | 78.74494 | 34308 ft | 392 kts | 298° |
| 2026-04-14 10:18 | 54.64270 | 78.66037 | 34307 ft | 392 kts | 297° |
| 2026-04-14 10:19 | 54.66652 | 78.57560 | 34302 ft | 392 kts | 297° |
| 2026-04-14 10:19 | 54.69027 | 78.49082 | 34299 ft | 392 kts | 297° |
| 2026-04-14 10:20 | 54.71392 | 78.40601 | 34299 ft | 392 kts | 297° |
| 2026-04-14 10:20 | 54.73761 | 78.32111 | 34294 ft | 392 kts | 297° |
| 2026-04-14 10:21 | 54.76119 | 78.23608 | 34293 ft | 392 kts | 297° |
| 2026-04-14 10:21 | 54.78467 | 78.15094 | 34294 ft | 392 kts | 297° |
| 2026-04-14 10:22 | 54.80813 | 78.06563 | 34292 ft | 392 kts | 297° |
| 2026-04-14 10:22 | 54.83149 | 77.98022 | 34293 ft | 392 kts | 297° |
| 2026-04-14 10:23 | 54.85487 | 77.89474 | 34291 ft | 392 kts | 297° |
| 2026-04-14 10:23 | 54.87819 | 77.80926 | 34285 ft | 392 kts | 297° |
| 2026-04-14 10:24 | 54.90142 | 77.72366 | 34281 ft | 392 kts | 297° |
| 2026-04-14 10:24 | 54.92429 | 77.63764 | 34275 ft | 393 kts | 293° |
| 2026-04-14 10:25 | 54.93830 | 77.54543 | 34275 ft | 396 kts | 287° |
| 2026-04-14 10:25 | 54.95075 | 77.45219 | 34271 ft | 396 kts | 287° |
| 2026-04-14 10:26 | 54.96322 | 77.35882 | 34268 ft | 396 kts | 287° |
| 2026-04-14 10:26 | 54.97571 | 77.26542 | 34268 ft | 396 kts | 287° |
| 2026-04-14 10:27 | 54.98809 | 77.17193 | 34263 ft | 396 kts | 287° |
| 2026-04-14 10:27 | 55.00035 | 77.07832 | 34260 ft | 397 kts | 286° |
| 2026-04-14 10:28 | 55.01249 | 76.98459 | 34260 ft | 397 kts | 286° |
| 2026-04-14 10:28 | 55.02459 | 76.89083 | 34264 ft | 397 kts | 286° |
| 2026-04-14 10:29 | 55.03663 | 76.79690 | 34264 ft | 397 kts | 286° |
| 2026-04-14 10:29 | 55.04868 | 76.70292 | 34259 ft | 397 kts | 286° |
| 2026-04-14 10:30 | 55.06064 | 76.60895 | 34256 ft | 397 kts | 286° |
| 2026-04-14 10:30 | 55.07253 | 76.51490 | 34247 ft | 397 kts | 286° |
| 2026-04-14 10:31 | 55.08423 | 76.42081 | 34246 ft | 397 kts | 286° |
| 2026-04-14 10:31 | 55.09589 | 76.32661 | 34239 ft | 397 kts | 286° |
| 2026-04-14 10:32 | 55.10749 | 76.23233 | 34241 ft | 397 kts | 286° |
| 2026-04-14 10:32 | 55.11907 | 76.13781 | 34241 ft | 398 kts | 286° |
| 2026-04-14 10:33 | 55.13058 | 76.04333 | 34242 ft | 398 kts | 286° |
| 2026-04-14 10:33 | 55.14202 | 75.94866 | 34238 ft | 398 kts | 286° |
| 2026-04-14 10:34 | 55.15902 | 75.80658 | 34240 ft | 398 kts | 285° |
| 2026-04-14 10:35 | 55.17020 | 75.71186 | 34236 ft | 398 kts | 285° |
| 2026-04-14 10:35 | 55.18134 | 75.61693 | 34234 ft | 398 kts | 285° |
| 2026-04-14 10:36 | 55.19250 | 75.52207 | 34239 ft | 398 kts | 285° |
| 2026-04-14 10:36 | 55.20360 | 75.42715 | 34227 ft | 398 kts | 285° |
| 2026-04-14 10:37 | 55.21462 | 75.33214 | 34230 ft | 398 kts | 285° |
| 2026-04-14 10:37 | 55.22556 | 75.23703 | 34227 ft | 398 kts | 285° |
| 2026-04-14 10:38 | 55.23637 | 75.14187 | 34225 ft | 398 kts | 285° |
| 2026-04-14 10:38 | 55.24713 | 75.04663 | 34226 ft | 399 kts | 285° |
| 2026-04-14 10:39 | 55.25782 | 74.95124 | 34223 ft | 399 kts | 285° |
| 2026-04-14 10:39 | 55.26848 | 74.85578 | 34224 ft | 399 kts | 285° |
| 2026-04-14 10:40 | 55.27908 | 74.76029 | 34224 ft | 399 kts | 285° |
| 2026-04-14 10:40 | 55.28958 | 74.66468 | 34223 ft | 399 kts | 285° |
| 2026-04-14 10:41 | 55.29995 | 74.56902 | 34217 ft | 399 kts | 285° |
| 2026-04-14 10:41 | 55.31029 | 74.47328 | 34221 ft | 399 kts | 285° |
| 2026-04-14 10:42 | 55.32055 | 74.37765 | 34218 ft | 399 kts | 285° |
| 2026-04-14 10:42 | 55.33076 | 74.28194 | 34215 ft | 399 kts | 285° |
| 2026-04-14 10:43 | 55.34091 | 74.18543 | 34209 ft | 399 kts | 285° |
| 2026-04-14 10:43 | 55.35095 | 74.08962 | 34209 ft | 399 kts | 285° |
| 2026-04-14 10:44 | 55.36098 | 73.99374 | 34211 ft | 399 kts | 285° |
| 2026-04-14 10:44 | 55.37089 | 73.89776 | 34208 ft | 399 kts | 285° |
| 2026-04-14 10:45 | 55.38071 | 73.80168 | 34207 ft | 399 kts | 285° |
| 2026-04-14 10:45 | 55.39047 | 73.70557 | 34209 ft | 399 kts | 285° |
| 2026-04-14 10:46 | 55.40020 | 73.60945 | 34207 ft | 399 kts | 285° |
| 2026-04-14 10:46 | 55.40981 | 73.51322 | 34214 ft | 399 kts | 284° |
| 2026-04-14 10:47 | 55.41930 | 73.41695 | 34212 ft | 399 kts | 284° |
| 2026-04-14 10:47 | 55.42874 | 73.32059 | 34198 ft | 399 kts | 284° |
| 2026-04-14 10:48 | 55.43816 | 73.22423 | 34201 ft | 399 kts | 284° |
| 2026-04-14 10:48 | 55.44746 | 73.12784 | 34194 ft | 399 kts | 284° |
| 2026-04-14 10:49 | 55.45666 | 73.03129 | 34195 ft | 399 kts | 284° |
| 2026-04-14 10:49 | 55.46582 | 72.93477 | 34193 ft | 399 kts | 284° |
| 2026-04-14 10:50 | 55.47494 | 72.83817 | 34193 ft | 399 kts | 284° |
| 2026-04-14 10:50 | 55.48398 | 72.74157 | 34191 ft | 399 kts | 284° |
| 2026-04-14 10:51 | 55.49296 | 72.64493 | 34192 ft | 399 kts | 284° |
| 2026-04-14 10:51 | 55.50185 | 72.54818 | 34196 ft | 399 kts | 284° |
| 2026-04-14 10:52 | 55.51066 | 72.45141 | 34189 ft | 399 kts | 284° |
| 2026-04-14 10:52 | 55.51792 | 72.37095 | 34190 ft | 399 kts | 284° |
| 2026-04-14 10:53 | 55.52658 | 72.27413 | 34182 ft | 399 kts | 284° |
| 2026-04-14 10:53 | 55.53512 | 72.17731 | 34189 ft | 399 kts | 284° |
| 2026-04-14 10:54 | 55.54362 | 72.08060 | 34186 ft | 399 kts | 284° |
| 2026-04-14 10:54 | 55.55202 | 71.98377 | 34180 ft | 399 kts | 284° |
| 2026-04-14 10:55 | 55.56035 | 71.88707 | 34193 ft | 398 kts | 284° |
| 2026-04-14 10:55 | 55.56862 | 71.79038 | 34189 ft | 398 kts | 283° |
| 2026-04-14 10:56 | 55.57678 | 71.69373 | 34183 ft | 397 kts | 283° |
| 2026-04-14 10:56 | 55.58485 | 71.59714 | 34180 ft | 397 kts | 283° |
| 2026-04-14 10:57 | 55.59287 | 71.50059 | 34174 ft | 397 kts | 283° |
| 2026-04-14 10:57 | 55.60082 | 71.40405 | 34173 ft | 397 kts | 283° |
| 2026-04-14 10:58 | 55.60862 | 71.30751 | 34175 ft | 396 kts | 283° |
| 2026-04-14 10:58 | 55.61507 | 71.21061 | 34172 ft | 401 kts | 276° |
| 2026-04-14 10:59 | 55.61335 | 71.11148 | 34169 ft | 403 kts | 274° |
| 2026-04-14 10:59 | 55.61154 | 71.01180 | 34172 ft | 403 kts | 274° |
| 2026-04-14 11:00 | 55.60965 | 70.91271 | 34166 ft | 403 kts | 274° |
| 2026-04-14 11:00 | 55.60763 | 70.81376 | 34166 ft | 402 kts | 274° |
| 2026-04-14 11:01 | 55.60563 | 70.71492 | 34172 ft | 402 kts | 274° |
| 2026-04-14 11:01 | 55.60347 | 70.61612 | 34174 ft | 402 kts | 274° |
| 2026-04-14 11:02 | 55.60115 | 70.51738 | 34176 ft | 402 kts | 274° |
| 2026-04-14 11:02 | 55.59884 | 70.41869 | 34179 ft | 402 kts | 274° |
| 2026-04-14 11:03 | 55.59651 | 70.31998 | 34177 ft | 401 kts | 274° |
| 2026-04-14 11:03 | 55.59404 | 70.22144 | 34183 ft | 401 kts | 274° |
| 2026-04-14 11:04 | 55.59154 | 70.12313 | 34180 ft | 400 kts | 274° |
| 2026-04-14 11:04 | 55.58894 | 70.02496 | 34177 ft | 399 kts | 274° |
| 2026-04-14 11:05 | 55.58625 | 69.92697 | 34180 ft | 399 kts | 274° |
| 2026-04-14 11:05 | 55.58346 | 69.82912 | 34181 ft | 398 kts | 274° |
| 2026-04-14 11:06 | 55.58064 | 69.73139 | 34181 ft | 398 kts | 274° |
| 2026-04-14 11:06 | 55.57772 | 69.63385 | 34181 ft | 397 kts | 274° |
| 2026-04-14 11:07 | 55.57472 | 69.53638 | 34185 ft | 397 kts | 274° |
| 2026-04-14 11:07 | 55.57166 | 69.43907 | 34190 ft | 396 kts | 274° |
| 2026-04-14 11:08 | 55.56857 | 69.34189 | 34181 ft | 396 kts | 273° |
| 2026-04-14 11:08 | 55.56531 | 69.24473 | 34186 ft | 396 kts | 273° |
| 2026-04-14 11:09 | 55.56240 | 69.14771 | 34185 ft | 395 kts | 275° |
| 2026-04-14 11:09 | 55.56132 | 69.05101 | 34192 ft | 393 kts | 276° |
| 2026-04-14 11:10 | 55.56030 | 68.90633 | 34191 ft | 392 kts | 275° |
| 2026-04-14 11:10 | 55.55903 | 68.81002 | 34192 ft | 392 kts | 275° |
| 2026-04-14 11:11 | 55.55755 | 68.71389 | 34194 ft | 391 kts | 275° |
| 2026-04-14 11:11 | 55.55607 | 68.61796 | 34193 ft | 390 kts | 275° |
| 2026-04-14 11:12 | 55.55458 | 68.52220 | 34186 ft | 390 kts | 275° |
| 2026-04-14 11:12 | 55.55300 | 68.42666 | 34189 ft | 389 kts | 275° |
| 2026-04-14 11:13 | 55.55128 | 68.33120 | 34185 ft | 388 kts | 275° |
| 2026-04-14 11:13 | 55.54956 | 68.23598 | 34187 ft | 388 kts | 275° |
| 2026-04-14 11:14 | 55.54781 | 68.14090 | 34180 ft | 387 kts | 275° |
| 2026-04-14 11:14 | 55.54586 | 68.04592 | 34184 ft | 387 kts | 275° |
| 2026-04-14 11:15 | 55.54409 | 67.95114 | 34188 ft | 386 kts | 275° |
| 2026-04-14 11:15 | 55.54277 | 67.85645 | 34190 ft | 385 kts | 275° |
| 2026-04-14 11:16 | 55.54140 | 67.76188 | 34188 ft | 385 kts | 275° |
| 2026-04-14 11:16 | 55.53979 | 67.66746 | 34184 ft | 385 kts | 275° |
| 2026-04-14 11:17 | 55.53810 | 67.57316 | 34185 ft | 384 kts | 275° |
| 2026-04-14 11:17 | 55.53639 | 67.47897 | 34184 ft | 384 kts | 274° |
| 2026-04-14 11:18 | 55.53464 | 67.38482 | 34188 ft | 383 kts | 274° |
| 2026-04-14 11:18 | 55.53279 | 67.29077 | 34188 ft | 383 kts | 274° |
| 2026-04-14 11:19 | 55.53077 | 67.19683 | 34186 ft | 383 kts | 274° |
| 2026-04-14 11:19 | 55.52880 | 67.10294 | 34190 ft | 383 kts | 274° |
| 2026-04-14 11:20 | 55.52672 | 67.00918 | 34194 ft | 382 kts | 274° |
| 2026-04-14 11:20 | 55.52454 | 66.91547 | 34191 ft | 382 kts | 274° |
| 2026-04-14 11:21 | 55.52230 | 66.82180 | 34189 ft | 382 kts | 274° |
| 2026-04-14 11:21 | 55.52005 | 66.72822 | 34186 ft | 382 kts | 273° |
| 2026-04-14 11:22 | 55.51770 | 66.63476 | 34185 ft | 381 kts | 273° |
| 2026-04-14 11:22 | 55.51521 | 66.54122 | 34182 ft | 381 kts | 273° |
| 2026-04-14 11:23 | 55.51263 | 66.44778 | 34186 ft | 381 kts | 273° |
| 2026-04-14 11:23 | 55.51002 | 66.35441 | 34184 ft | 381 kts | 272° |
| 2026-04-14 11:24 | 55.50715 | 66.26107 | 34182 ft | 381 kts | 272° |
| 2026-04-14 11:24 | 55.50385 | 66.16766 | 34182 ft | 382 kts | 272° |
| 2026-04-14 11:25 | 55.50050 | 66.07423 | 34186 ft | 382 kts | 272° |
| 2026-04-14 11:25 | 55.49705 | 65.98009 | 34186 ft | 382 kts | 272° |
| 2026-04-14 11:26 | 55.49360 | 65.88666 | 34189 ft | 382 kts | 272° |
| 2026-04-14 11:26 | 55.49018 | 65.79381 | 34188 ft | 382 kts | 271° |
| 2026-04-14 11:27 | 55.48666 | 65.69969 | 34188 ft | 382 kts | 271° |
| 2026-04-14 11:27 | 55.48301 | 65.60610 | 34184 ft | 382 kts | 271° |
| 2026-04-14 11:28 | 55.47928 | 65.51253 | 34186 ft | 383 kts | 271° |
| 2026-04-14 11:28 | 55.47537 | 65.41893 | 34186 ft | 383 kts | 271° |
| 2026-04-14 11:29 | 55.47406 | 65.34130 | 34185 ft | 380 kts | 275° |
| 2026-04-14 11:29 | 55.47499 | 65.24819 | 34187 ft | 380 kts | 276° |
| 2026-04-14 11:30 | 55.47599 | 65.15495 | 34201 ft | 381 kts | 275° |
| 2026-04-14 11:30 | 55.47639 | 65.06160 | 34187 ft | 381 kts | 275° |
| 2026-04-14 11:31 | 55.47648 | 64.96820 | 34184 ft | 381 kts | 274° |
| 2026-04-14 11:31 | 55.47636 | 64.87473 | 34185 ft | 381 kts | 274° |
| 2026-04-14 11:32 | 55.47623 | 64.78130 | 34183 ft | 381 kts | 274° |
| 2026-04-14 11:32 | 55.47605 | 64.68773 | 34186 ft | 382 kts | 274° |
| 2026-04-14 11:33 | 55.47580 | 64.59417 | 34182 ft | 382 kts | 274° |
| 2026-04-14 11:34 | 55.47522 | 64.45385 | 34180 ft | 381 kts | 274° |
| 2026-04-14 11:34 | 55.47514 | 64.36034 | 34185 ft | 381 kts | 274° |
| 2026-04-14 11:35 | 55.47508 | 64.26687 | 34182 ft | 381 kts | 274° |
| 2026-04-14 11:35 | 55.47499 | 64.17337 | 34181 ft | 381 kts | 274° |
| 2026-04-14 11:36 | 55.47480 | 64.07983 | 34181 ft | 382 kts | 274° |
| 2026-04-14 11:36 | 55.47442 | 63.98627 | 34185 ft | 382 kts | 273° |
| 2026-04-14 11:37 | 55.47396 | 63.89268 | 34189 ft | 382 kts | 273° |
| 2026-04-14 11:37 | 55.47350 | 63.79910 | 34186 ft | 382 kts | 273° |
| 2026-04-14 11:38 | 55.47302 | 63.70544 | 34190 ft | 382 kts | 273° |
| 2026-04-14 11:38 | 55.47245 | 63.61178 | 34187 ft | 382 kts | 272° |
| 2026-04-14 11:39 | 55.47177 | 63.51822 | 34183 ft | 382 kts | 272° |
| 2026-04-14 11:39 | 55.47106 | 63.42464 | 34185 ft | 382 kts | 272° |
| 2026-04-14 11:40 | 55.47028 | 63.33098 | 34184 ft | 382 kts | 272° |
| 2026-04-14 11:40 | 55.46941 | 63.23727 | 34182 ft | 383 kts | 272° |
| 2026-04-14 11:41 | 55.46844 | 63.14344 | 34186 ft | 383 kts | 272° |
| 2026-04-14 11:41 | 55.46738 | 63.04959 | 34184 ft | 383 kts | 272° |
| 2026-04-14 11:42 | 55.46309 | 62.95567 | 34188 ft | 386 kts | 267° |
| 2026-04-14 11:42 | 55.45679 | 62.86186 | 34186 ft | 386 kts | 267° |
| 2026-04-14 11:43 | 55.45044 | 62.76792 | 34185 ft | 386 kts | 267° |
| 2026-04-14 11:43 | 55.44400 | 62.67402 | 34185 ft | 386 kts | 267° |
| 2026-04-14 11:44 | 55.43748 | 62.58003 | 34184 ft | 387 kts | 266° |
| 2026-04-14 11:44 | 55.43092 | 62.48613 | 34190 ft | 387 kts | 266° |
| 2026-04-14 11:45 | 55.42423 | 62.39206 | 34183 ft | 387 kts | 266° |
| 2026-04-14 11:45 | 55.41743 | 62.29800 | 34183 ft | 387 kts | 266° |
| 2026-04-14 11:46 | 55.41056 | 62.20406 | 34183 ft | 387 kts | 266° |
| 2026-04-14 11:46 | 55.40369 | 62.10998 | 34186 ft | 388 kts | 266° |
| 2026-04-14 11:47 | 55.39678 | 62.01591 | 34185 ft | 388 kts | 266° |
| 2026-04-14 11:47 | 55.38975 | 61.92183 | 34185 ft | 388 kts | 265° |
| 2026-04-14 11:48 | 55.38264 | 61.82784 | 34188 ft | 388 kts | 265° |
| 2026-04-14 11:48 | 55.37542 | 61.73391 | 34193 ft | 388 kts | 265° |
| 2026-04-14 11:49 | 55.36807 | 61.63993 | 34197 ft | 388 kts | 265° |
| 2026-04-14 11:49 | 55.36072 | 61.54581 | 34192 ft | 389 kts | 265° |
| 2026-04-14 11:50 | 55.35333 | 61.45167 | 34196 ft | 389 kts | 265° |
| 2026-04-14 11:50 | 55.34585 | 61.35735 | 34198 ft | 390 kts | 265° |
| 2026-04-14 11:51 | 55.33443 | 61.21582 | 34196 ft | 390 kts | 265° |
| 2026-04-14 11:51 | 55.32663 | 61.12072 | 34186 ft | 391 kts | 264° |
| 2026-04-14 11:52 | 55.31875 | 61.02600 | 34185 ft | 392 kts | 264° |
| 2026-04-14 11:52 | 55.31086 | 60.93119 | 34185 ft | 393 kts | 264° |
| 2026-04-14 11:53 | 55.30289 | 60.83621 | 34184 ft | 394 kts | 264° |
| 2026-04-14 11:53 | 55.29478 | 60.74106 | 34191 ft | 395 kts | 264° |
| 2026-04-14 11:54 | 55.28660 | 60.64579 | 34198 ft | 395 kts | 264° |
| 2026-04-14 11:54 | 55.27835 | 60.55032 | 34198 ft | 396 kts | 264° |
| 2026-04-14 11:55 | 55.27000 | 60.45475 | 34202 ft | 397 kts | 264° |
| 2026-04-14 11:55 | 55.26154 | 60.35909 | 34202 ft | 397 kts | 263° |
| 2026-04-14 11:56 | 55.25302 | 60.26332 | 34206 ft | 398 kts | 263° |
| 2026-04-14 11:56 | 55.24432 | 60.16752 | 34202 ft | 398 kts | 263° |
| 2026-04-14 11:57 | 55.23644 | 60.07155 | 34193 ft | 398 kts | 265° |
| 2026-04-14 11:57 | 55.23145 | 59.97500 | 34199 ft | 398 kts | 267° |
| 2026-04-14 11:58 | 55.22697 | 59.87846 | 34197 ft | 398 kts | 266° |
| 2026-04-14 11:58 | 55.22182 | 59.78177 | 34195 ft | 399 kts | 266° |
| 2026-04-14 11:59 | 55.21744 | 59.68512 | 34179 ft | 397 kts | 272° |
| 2026-04-14 11:59 | 55.22003 | 59.58850 | 34177 ft | 398 kts | 273° |
| 2026-04-14 12:00 | 55.22265 | 59.49155 | 34184 ft | 398 kts | 273° |
| 2026-04-14 12:00 | 55.22512 | 59.39461 | 34187 ft | 398 kts | 273° |
| 2026-04-14 12:01 | 55.22758 | 59.29762 | 34183 ft | 399 kts | 273° |
| 2026-04-14 12:01 | 55.22997 | 59.20045 | 34186 ft | 400 kts | 273° |
| 2026-04-14 12:02 | 55.23226 | 59.10313 | 34184 ft | 400 kts | 272° |
| 2026-04-14 12:02 | 55.23445 | 59.00565 | 34188 ft | 401 kts | 272° |
| 2026-04-14 12:03 | 55.23650 | 58.90799 | 34188 ft | 401 kts | 272° |
| 2026-04-14 12:03 | 55.23855 | 58.81014 | 34189 ft | 402 kts | 272° |
| 2026-04-14 12:04 | 55.24053 | 58.71216 | 34186 ft | 403 kts | 272° |
| 2026-04-14 12:04 | 55.24249 | 58.61406 | 34189 ft | 403 kts | 272° |
| 2026-04-14 12:05 | 55.24441 | 58.51587 | 34192 ft | 404 kts | 272° |
| 2026-04-14 12:05 | 55.24609 | 58.41748 | 34193 ft | 404 kts | 272° |
| 2026-04-14 12:06 | 55.24774 | 58.31902 | 34194 ft | 405 kts | 272° |
| 2026-04-14 12:06 | 55.24929 | 58.22043 | 34199 ft | 405 kts | 272° |
| 2026-04-14 12:07 | 55.25079 | 58.12173 | 34196 ft | 405 kts | 272° |
| 2026-04-14 12:07 | 55.25508 | 58.02333 | 34199 ft | 405 kts | 276° |
| 2026-04-14 12:08 | 55.26072 | 57.94177 | 34197 ft | 406 kts | 277° |
| 2026-04-14 12:08 | 55.26745 | 57.84361 | 34199 ft | 406 kts | 276° |
| 2026-04-14 12:09 | 55.27336 | 57.74520 | 34197 ft | 406 kts | 275° |
| 2026-04-14 12:09 | 55.27886 | 57.64660 | 34194 ft | 406 kts | 275° |
| 2026-04-14 12:10 | 55.28435 | 57.54803 | 34187 ft | 406 kts | 275° |
| 2026-04-14 12:10 | 55.28988 | 57.44932 | 34183 ft | 407 kts | 275° |
| 2026-04-14 12:11 | 55.29535 | 57.35048 | 34179 ft | 407 kts | 275° |
| 2026-04-14 12:11 | 55.30067 | 57.25152 | 34182 ft | 408 kts | 275° |
| 2026-04-14 12:12 | 55.30593 | 57.15249 | 34173 ft | 408 kts | 275° |
| 2026-04-14 12:12 | 55.31121 | 57.05269 | 34173 ft | 408 kts | 275° |
| 2026-04-14 12:13 | 55.31641 | 56.95337 | 34168 ft | 408 kts | 275° |
| 2026-04-14 12:13 | 55.32146 | 56.85404 | 34166 ft | 409 kts | 275° |
| 2026-04-14 12:14 | 55.32644 | 56.75459 | 34167 ft | 409 kts | 275° |
| 2026-04-14 12:14 | 55.33138 | 56.65509 | 34167 ft | 409 kts | 274° |
| 2026-04-14 12:15 | 55.33621 | 56.55558 | 34159 ft | 409 kts | 274° |
| 2026-04-14 12:15 | 55.34092 | 56.45598 | 34162 ft | 409 kts | 274° |
| 2026-04-14 12:16 | 55.34564 | 56.35631 | 34155 ft | 410 kts | 274° |
| 2026-04-14 12:16 | 55.35027 | 56.25657 | 34154 ft | 410 kts | 274° |
| 2026-04-14 12:17 | 55.35477 | 56.15673 | 34152 ft | 410 kts | 274° |
| 2026-04-14 12:17 | 55.35921 | 56.05677 | 34148 ft | 411 kts | 274° |
| 2026-04-14 12:18 | 55.36359 | 55.95657 | 34149 ft | 411 kts | 274° |
| 2026-04-14 12:18 | 55.36787 | 55.85630 | 34148 ft | 412 kts | 274° |
| 2026-04-14 12:19 | 55.37205 | 55.75582 | 34147 ft | 413 kts | 274° |
| 2026-04-14 12:19 | 55.37620 | 55.65510 | 34153 ft | 413 kts | 273° |
| 2026-04-14 12:20 | 55.38031 | 55.55426 | 34154 ft | 414 kts | 273° |
| 2026-04-14 12:20 | 55.38431 | 55.45320 | 34162 ft | 415 kts | 273° |
| 2026-04-14 12:21 | 55.38819 | 55.35204 | 34165 ft | 415 kts | 273° |
| 2026-04-14 12:21 | 55.39196 | 55.25073 | 34169 ft | 415 kts | 272° |
| 2026-04-14 12:22 | 55.39451 | 55.14921 | 34170 ft | 415 kts | 271° |
| 2026-04-14 12:22 | 55.39575 | 55.04762 | 34172 ft | 416 kts | 270° |
| 2026-04-14 12:23 | 55.39702 | 54.94582 | 34170 ft | 416 kts | 271° |
| 2026-04-14 12:23 | 55.39855 | 54.84394 | 34176 ft | 417 kts | 271° |
| 2026-04-14 12:24 | 55.40008 | 54.74198 | 34173 ft | 417 kts | 270° |
| 2026-04-14 12:24 | 55.40153 | 54.63988 | 34175 ft | 417 kts | 270° |
| 2026-04-14 12:25 | 55.40280 | 54.53780 | 34171 ft | 418 kts | 270° |
| 2026-04-14 12:25 | 55.40393 | 54.43560 | 34170 ft | 418 kts | 270° |
| 2026-04-14 12:26 | 55.40507 | 54.33341 | 34165 ft | 418 kts | 270° |
| 2026-04-14 12:26 | 55.40609 | 54.23102 | 34163 ft | 419 kts | 270° |
| 2026-04-14 12:27 | 55.40697 | 54.12849 | 34167 ft | 419 kts | 269° |
| 2026-04-14 12:27 | 55.40781 | 54.02583 | 34164 ft | 420 kts | 269° |
| 2026-04-14 12:28 | 55.40869 | 53.92298 | 34166 ft | 420 kts | 269° |
| 2026-04-14 12:28 | 55.40948 | 53.82014 | 34166 ft | 421 kts | 269° |
| 2026-04-14 12:29 | 55.41007 | 53.71705 | 34166 ft | 421 kts | 269° |
| 2026-04-14 12:29 | 55.41059 | 53.61403 | 34166 ft | 421 kts | 269° |
| 2026-04-14 12:30 | 55.41107 | 53.51089 | 34168 ft | 422 kts | 269° |
| 2026-04-14 12:30 | 55.41135 | 53.40763 | 34160 ft | 422 kts | 269° |
| 2026-04-14 12:31 | 55.41167 | 53.30426 | 34160 ft | 423 kts | 269° |
| 2026-04-14 12:31 | 55.41194 | 53.20081 | 34159 ft | 423 kts | 269° |
| 2026-04-14 12:32 | 55.41213 | 53.09731 | 34160 ft | 423 kts | 268° |
| 2026-04-14 12:32 | 55.41215 | 52.99384 | 34154 ft | 423 kts | 268° |
| 2026-04-14 12:33 | 55.41209 | 52.89023 | 34157 ft | 424 kts | 268° |
| 2026-04-14 12:33 | 55.41194 | 52.78637 | 34156 ft | 424 kts | 268° |
| 2026-04-14 12:34 | 55.41167 | 52.68240 | 34158 ft | 425 kts | 268° |
| 2026-04-14 12:34 | 55.41139 | 52.57841 | 34158 ft | 426 kts | 268° |
| 2026-04-14 12:35 | 55.41105 | 52.47412 | 34163 ft | 426 kts | 268° |
| 2026-04-14 12:35 | 55.41059 | 52.36973 | 34165 ft | 427 kts | 267° |
| 2026-04-14 12:36 | 55.40990 | 52.26525 | 34167 ft | 427 kts | 267° |
| 2026-04-14 12:36 | 55.40920 | 52.16069 | 34170 ft | 428 kts | 267° |
| 2026-04-14 12:37 | 55.40843 | 52.05601 | 34170 ft | 428 kts | 267° |
| 2026-04-14 12:37 | 55.40761 | 51.95119 | 34171 ft | 428 kts | 267° |
| 2026-04-14 12:38 | 55.40613 | 51.79380 | 34167 ft | 429 kts | 267° |
| 2026-04-14 12:39 | 55.40507 | 51.68886 | 34159 ft | 429 kts | 267° |
| 2026-04-14 12:39 | 55.40391 | 51.58379 | 34158 ft | 430 kts | 266° |
| 2026-04-14 12:40 | 55.40260 | 51.47862 | 34154 ft | 430 kts | 266° |
| 2026-04-14 12:40 | 55.40121 | 51.37336 | 34152 ft | 430 kts | 266° |
| 2026-04-14 12:41 | 55.39976 | 51.26809 | 34152 ft | 431 kts | 266° |
| 2026-04-14 12:41 | 55.39818 | 51.16269 | 34154 ft | 431 kts | 266° |
| 2026-04-14 12:42 | 55.39677 | 51.05724 | 34151 ft | 431 kts | 267° |
| 2026-04-14 12:42 | 55.39640 | 50.95169 | 34151 ft | 432 kts | 268° |
| 2026-04-14 12:43 | 55.39611 | 50.84600 | 34152 ft | 432 kts | 267° |
| 2026-04-14 12:43 | 55.39549 | 50.74027 | 34152 ft | 432 kts | 267° |
| 2026-04-14 12:44 | 55.39475 | 50.63443 | 34155 ft | 433 kts | 267° |
| 2026-04-14 12:44 | 55.39387 | 50.52857 | 34152 ft | 433 kts | 266° |
| 2026-04-14 12:45 | 55.39231 | 50.36959 | 34147 ft | 433 kts | 266° |
| 2026-04-14 12:45 | 55.39113 | 50.26360 | 34144 ft | 434 kts | 266° |
| 2026-04-14 12:46 | 55.39011 | 50.17469 | 34138 ft | 434 kts | 266° |
| 2026-04-14 12:46 | 55.38884 | 50.06851 | 34139 ft | 434 kts | 266° |
| 2026-04-14 12:47 | 55.38804 | 49.96215 | 34135 ft | 436 kts | 271° |
| 2026-04-14 12:47 | 55.39336 | 49.85578 | 34131 ft | 437 kts | 272° |
| 2026-04-14 12:48 | 55.39872 | 49.74908 | 34134 ft | 438 kts | 272° |
| 2026-04-14 12:48 | 55.40397 | 49.64242 | 34137 ft | 438 kts | 272° |
| 2026-04-14 12:49 | 55.40911 | 49.53541 | 34142 ft | 439 kts | 272° |
| 2026-04-14 12:49 | 55.41410 | 49.42829 | 34144 ft | 439 kts | 272° |
| 2026-04-14 12:50 | 55.42152 | 49.26750 | 34146 ft | 439 kts | 272° |
| 2026-04-14 12:51 | 55.42634 | 49.16029 | 34140 ft | 440 kts | 272° |
| 2026-04-14 12:51 | 55.43099 | 49.05285 | 34137 ft | 440 kts | 272° |
| 2026-04-14 12:52 | 55.43555 | 48.94523 | 34137 ft | 441 kts | 272° |
| 2026-04-14 12:52 | 55.44014 | 48.83749 | 34136 ft | 442 kts | 271° |
| 2026-04-14 12:53 | 55.44463 | 48.72949 | 34138 ft | 442 kts | 271° |
| 2026-04-14 12:53 | 55.44902 | 48.62142 | 34134 ft | 442 kts | 271° |
| 2026-04-14 12:54 | 55.45322 | 48.51326 | 34138 ft | 443 kts | 271° |
| 2026-04-14 12:54 | 55.45741 | 48.40497 | 34134 ft | 443 kts | 271° |
| 2026-04-14 12:55 | 55.46156 | 48.29642 | 34138 ft | 444 kts | 271° |
| 2026-04-14 12:55 | 55.46554 | 48.18791 | 34140 ft | 444 kts | 271° |
| 2026-04-14 12:56 | 55.46938 | 48.07932 | 34142 ft | 444 kts | 271° |
| 2026-04-14 12:56 | 55.47319 | 47.97074 | 34139 ft | 444 kts | 271° |
| 2026-04-14 12:57 | 55.47692 | 47.86202 | 34141 ft | 445 kts | 271° |
| 2026-04-14 12:57 | 55.48065 | 47.75312 | 34138 ft | 445 kts | 270° |
| 2026-04-14 12:58 | 55.48427 | 47.64410 | 34140 ft | 445 kts | 270° |
| 2026-04-14 12:58 | 55.48767 | 47.53499 | 34142 ft | 446 kts | 270° |
| 2026-04-14 12:59 | 55.49098 | 47.42575 | 34142 ft | 446 kts | 270° |
| 2026-04-14 12:59 | 55.49419 | 47.31631 | 34135 ft | 447 kts | 270° |
| 2026-04-14 13:00 | 55.49734 | 47.20682 | 34141 ft | 447 kts | 270° |
| 2026-04-14 13:00 | 55.50041 | 47.09716 | 34136 ft | 448 kts | 270° |
| 2026-04-14 13:01 | 55.50343 | 46.98750 | 34139 ft | 448 kts | 269° |
| 2026-04-14 13:01 | 55.50393 | 46.96898 | 34140 ft | 448 kts | 270° |